createdAt,value
2018-06-16T00:00:48.564Z,59.86
2018-06-16T00:03:17.537Z,60.13
2018-06-16T00:05:46.676Z,59.97
2018-06-16T00:08:15.774Z,59.55
2018-06-16T00:10:44.888Z,59.30
2018-06-16T00:13:13.922Z,58.87
2018-06-16T00:15:42.873Z,58.66
2018-06-16T00:18:12.292Z,58.66
2018-06-16T00:20:41.834Z,58.57
2018-06-16T00:23:10.975Z,58.61
2018-06-16T00:25:39.918Z,58.72
2018-06-16T00:28:08.585Z,58.44
2018-06-16T00:30:37.291Z,58.48
2018-06-16T00:33:06.017Z,57.91
2018-06-16T00:35:34.781Z,57.57
2018-06-16T00:38:03.515Z,56.93
2018-06-16T00:40:32.319Z,57.17
2018-06-16T00:43:01.345Z,56.74
2018-06-16T00:45:30.350Z,56.57
2018-06-16T00:47:59.575Z,56.94
2018-06-16T00:50:28.758Z,57.17
2018-06-16T00:52:57.787Z,57.08
2018-06-16T00:55:26.759Z,56.97
2018-06-16T00:57:55.456Z,57.16
2018-06-16T01:00:24.160Z,57.49
2018-06-16T01:02:52.877Z,57.57
2018-06-16T01:05:21.748Z,56.81
2018-06-16T01:07:50.610Z,56.52
2018-06-16T01:10:19.418Z,56.88
2018-06-16T01:12:48.278Z,56.70
2018-06-16T01:15:17.130Z,56.47
2018-06-16T01:17:46.202Z,57.07
2018-06-16T01:20:14.892Z,56.81
2018-06-16T01:22:43.900Z,56.85
2018-06-16T01:25:12.623Z,57.39
2018-06-16T01:27:41.344Z,57.56
2018-06-16T01:30:10.134Z,57.25
2018-06-16T01:32:38.806Z,57.84
2018-06-16T01:35:07.489Z,57.56
2018-06-16T01:37:42.811Z,57.97
2018-06-16T01:40:11.496Z,57.83
2018-06-16T01:42:40.170Z,57.87
2018-06-16T01:45:09.062Z,57.46
2018-06-16T01:47:38.186Z,57.78
2018-06-16T01:50:07.367Z,57.91
2018-06-16T01:52:36.513Z,57.34
2018-06-16T01:55:05.718Z,57.38
2018-06-16T01:57:34.782Z,57.22
2018-06-16T02:00:03.976Z,57.28
2018-06-16T02:02:33.003Z,58.04
2018-06-16T02:05:02.160Z,58.03
2018-06-16T02:07:31.154Z,57.78
2018-06-16T02:10:00.200Z,57.65
2018-06-16T02:12:29.401Z,58.17
2018-06-16T02:14:58.484Z,58.40
2018-06-16T02:17:27.632Z,58.01
2018-06-16T02:19:56.598Z,58.37
2018-06-16T02:22:25.394Z,58.11
2018-06-16T02:24:54.128Z,57.82
2018-06-16T02:27:22.817Z,57.90
2018-06-16T02:29:51.794Z,58.11
2018-06-16T02:32:20.802Z,57.80
2018-06-16T02:34:49.545Z,58.50
2018-06-16T02:37:18.361Z,58.85
2018-06-16T02:39:47.408Z,58.96
2018-06-16T02:42:16.181Z,59.06
2018-06-16T02:44:44.867Z,59.55
2018-06-16T02:47:13.572Z,59.58
2018-06-16T02:49:42.363Z,59.18
2018-06-16T02:52:11.075Z,59.85
2018-06-16T02:54:40.245Z,59.55
2018-06-16T02:57:09.418Z,60.16
2018-06-16T02:59:38.470Z,60.44
2018-06-16T03:02:08.234Z,60.63
2018-06-16T03:04:37.253Z,60.94
2018-06-16T03:07:06.103Z,60.66
2018-06-16T03:09:41.272Z,60.74
2018-06-16T03:12:09.994Z,60.54
2018-06-16T03:14:38.844Z,60.34
2018-06-16T03:17:07.598Z,60.42
2018-06-16T03:19:36.319Z,60.66
2018-06-16T03:22:05.054Z,60.98
2018-06-16T03:24:34.086Z,60.87
2018-06-16T03:27:03.181Z,60.58
2018-06-16T03:29:32.190Z,60.57
2018-06-16T03:32:01.106Z,61.09
2018-06-16T03:34:30.004Z,61.22
2018-06-16T03:36:58.781Z,61.50
2018-06-16T03:39:27.510Z,61.00
2018-06-16T03:41:56.270Z,61.82
2018-06-16T03:44:25.271Z,62.02
2018-06-16T03:46:54.282Z,61.90
2018-06-16T03:49:23.044Z,61.41
2018-06-16T03:51:51.788Z,60.95
2018-06-16T03:54:20.724Z,61.34
2018-06-16T03:56:49.796Z,61.42
2018-06-16T03:59:18.604Z,61.74
2018-06-16T04:01:47.608Z,62.03
2018-06-16T04:04:16.330Z,61.71
2018-06-16T04:06:45.124Z,61.40
2018-06-16T04:09:14.230Z,61.32
2018-06-16T04:11:43.271Z,61.56
2018-06-16T04:14:12.309Z,62.64
2018-06-16T04:16:41.325Z,63.16
2018-06-16T04:19:10.459Z,63.64
2018-06-16T04:21:39.213Z,63.77
2018-06-16T04:24:07.961Z,63.02
2018-06-16T04:26:37.052Z,62.63
2018-06-16T04:29:06.147Z,62.75
2018-06-16T04:31:41.537Z,62.37
2018-06-16T04:34:10.280Z,62.29
2018-06-16T04:36:39.004Z,61.37
2018-06-16T04:39:09.330Z,61.82
2018-06-16T04:41:38.387Z,61.88
2018-06-16T04:44:07.577Z,62.15
2018-06-16T04:46:36.670Z,62.24
2018-06-16T04:49:05.559Z,62.22
2018-06-16T04:51:34.458Z,61.85
2018-06-16T04:54:03.291Z,62.19
2018-06-16T04:56:32.322Z,62.50
2018-06-16T04:59:01.469Z,61.76
2018-06-16T05:01:30.509Z,61.87
2018-06-16T05:03:59.505Z,61.81
2018-06-16T05:06:28.551Z,62.13
2018-06-16T05:08:57.715Z,61.50
2018-06-16T05:11:26.732Z,61.63
2018-06-16T05:13:55.458Z,62.08
2018-06-16T05:16:24.316Z,62.02
2018-06-16T05:18:53.115Z,62.20
2018-06-16T05:21:21.895Z,61.81
2018-06-16T05:23:50.636Z,61.62
2018-06-16T05:26:19.341Z,61.62
2018-06-16T05:28:48.097Z,61.82
2018-06-16T05:31:17.517Z,62.14
2018-06-16T05:33:46.605Z,62.84
2018-06-16T05:36:15.403Z,62.95
2018-06-16T05:38:44.438Z,63.24
2018-06-16T05:41:13.491Z,63.36
2018-06-16T05:43:42.529Z,63.28
2018-06-16T05:46:11.623Z,63.29
2018-06-16T05:48:40.770Z,63.48
2018-06-16T05:51:09.944Z,62.76
2018-06-16T05:53:39.040Z,62.90
2018-06-16T05:56:08.055Z,63.13
2018-06-16T05:58:37.174Z,63.53
2018-06-16T06:01:06.314Z,63.49
2018-06-16T06:03:34.946Z,62.88
2018-06-16T06:06:03.782Z,62.22
2018-06-16T06:08:32.897Z,61.70
2018-06-16T06:11:01.904Z,62.08
2018-06-16T06:13:30.621Z,61.42
2018-06-16T06:15:59.751Z,60.58
2018-06-16T06:18:28.960Z,59.69
2018-06-16T06:20:57.906Z,58.58
2018-06-16T06:23:26.908Z,57.78
2018-06-16T06:25:55.789Z,56.91
2018-06-16T06:28:24.694Z,56.58
2018-06-16T06:30:53.401Z,55.73
2018-06-16T06:33:22.083Z,55.40
2018-06-16T06:35:50.863Z,54.61
2018-06-16T06:38:19.741Z,54.90
2018-06-16T06:40:49.261Z,54.57
2018-06-16T06:43:18.229Z,54.62
2018-06-16T06:45:47.525Z,54.35
2018-06-16T06:48:16.572Z,52.97
2018-06-16T06:50:45.837Z,53.06
2018-06-16T06:53:14.936Z,52.56
2018-06-16T06:55:43.977Z,53.64
2018-06-16T06:58:13.115Z,52.34
2018-06-16T07:00:42.921Z,52.23
2018-06-16T07:03:11.973Z,52.34
2018-06-16T07:05:41.115Z,52.26
2018-06-16T07:08:09.885Z,51.71
2018-06-16T07:10:38.702Z,51.44
2018-06-16T07:13:07.932Z,50.37
2018-06-16T07:15:36.914Z,50.14
2018-06-16T07:18:06.049Z,52.05
2018-06-16T07:20:35.483Z,51.20
2018-06-16T07:23:04.593Z,50.88
2018-06-16T07:25:33.676Z,50.43
2018-06-16T07:28:02.779Z,49.57
2018-06-16T07:30:31.829Z,49.35
2018-06-16T07:33:00.935Z,49.28
2018-06-16T07:35:29.907Z,49.61
2018-06-16T07:37:59.013Z,48.92
2018-06-16T07:40:28.160Z,48.24
2018-06-16T07:42:57.166Z,48.76
2018-06-16T07:45:26.394Z,48.81
2018-06-16T07:47:55.823Z,48.98
2018-06-16T07:50:24.886Z,48.55
2018-06-16T07:52:54.011Z,48.08
2018-06-16T07:55:23.105Z,47.49
2018-06-16T07:57:52.220Z,47.41
2018-06-16T08:00:24.220Z,47.81
2018-06-16T08:02:54.174Z,47.79
2018-06-16T08:05:23.408Z,47.72
2018-06-16T08:07:53.129Z,47.08
2018-06-16T08:10:22.231Z,47.12
2018-06-16T08:12:51.387Z,46.18
2018-06-16T08:15:20.358Z,45.35
2018-06-16T08:17:50.190Z,44.73
2018-06-16T08:20:19.306Z,45.20
2018-06-16T08:22:48.464Z,45.48
2018-06-16T08:25:26.239Z,45.51
2018-06-16T08:27:55.368Z,46.28
2018-06-16T08:30:24.438Z,45.20
2018-06-16T08:32:54.699Z,45.71
2018-06-16T08:35:30.524Z,45.50
2018-06-16T08:37:59.571Z,46.91
2018-06-16T08:40:28.702Z,46.31
2018-06-16T08:42:58.189Z,46.02
2018-06-16T08:45:27.708Z,45.31
2018-06-16T08:47:56.802Z,45.85
2018-06-16T08:50:25.496Z,46.05
2018-06-16T08:52:54.295Z,45.93
2018-06-16T08:55:23.337Z,45.15
2018-06-16T08:57:52.088Z,45.95
2018-06-16T09:00:21.059Z,46.34
2018-06-16T09:02:50.024Z,45.96
2018-06-16T09:05:19.023Z,45.72
2018-06-16T09:10:38.357Z,45.07
2018-06-16T09:13:08.040Z,45.79
2018-06-16T09:15:44.054Z,46.56
2018-06-16T09:18:13.092Z,46.93
2018-06-16T09:20:43.277Z,47.24
2018-06-16T09:23:13.264Z,46.49
2018-06-16T09:25:42.300Z,46.25
2018-06-16T09:28:11.164Z,46.34
2018-06-16T09:30:40.119Z,46.46
2018-06-16T09:33:09.264Z,47.46
2018-06-16T09:35:38.277Z,46.93
2018-06-16T09:38:07.228Z,47.91
2018-06-16T09:40:36.395Z,47.22
2018-06-16T09:43:06.900Z,46.08
2018-06-16T09:45:42.562Z,45.51
2018-06-16T09:48:13.161Z,45.94
2018-06-16T09:53:09.649Z,45.42
2018-06-16T09:55:38.593Z,44.13
2018-06-16T09:58:06.967Z,44.95
2018-06-16T10:00:41.596Z,45.21
2018-06-16T10:03:11.520Z,45.16
2018-06-16T10:05:42.271Z,45.71
2018-06-16T10:08:11.701Z,45.88
2018-06-16T10:10:40.803Z,46.44
2018-06-16T10:13:09.836Z,46.13
2018-06-16T10:21:18.724Z,47.30
2018-06-16T10:23:47.812Z,47.07
2018-06-16T10:26:16.992Z,46.82
2018-06-16T10:28:46.174Z,46.51
2018-06-16T10:31:16.145Z,46.47
2018-06-16T10:33:45.230Z,46.87
2018-06-16T10:36:14.478Z,47.34
2018-06-16T10:38:44.012Z,47.30
2018-06-16T10:41:29.251Z,47.63
2018-06-16T10:43:58.303Z,46.55
2018-06-16T10:46:27.970Z,48.54
2018-06-16T10:49:03.589Z,47.56
2018-06-16T10:51:32.560Z,47.30
2018-06-16T10:54:01.581Z,46.91
2018-06-16T10:56:30.682Z,47.24
2018-06-16T10:58:59.733Z,47.31
2018-06-16T11:01:28.856Z,47.08
2018-06-16T11:03:57.894Z,47.01
2018-06-16T11:06:26.875Z,46.35
2018-06-16T11:08:55.884Z,47.01
2018-06-16T11:11:25.101Z,47.83
2018-06-16T11:13:54.068Z,46.56
2018-06-16T11:16:22.992Z,47.10
2018-06-16T11:18:51.724Z,46.31
2018-06-16T11:21:20.520Z,46.53
2018-06-16T11:23:49.296Z,46.84
2018-06-16T11:26:18.148Z,46.61
2018-06-16T11:28:46.984Z,46.95
2018-06-16T11:31:15.741Z,46.96
2018-06-16T11:33:44.786Z,46.77
2018-06-16T11:36:13.789Z,46.82
2018-06-16T11:38:42.800Z,47.63
2018-06-16T11:41:11.530Z,48.13
2018-06-16T11:43:40.241Z,49.17
2018-06-16T11:46:09.459Z,50.49
2018-06-16T11:48:38.546Z,52.61
2018-06-16T11:51:07.228Z,52.88
2018-06-16T11:53:36.229Z,53.95
2018-06-16T11:56:05.397Z,55.52
2018-06-16T11:58:34.542Z,55.92
2018-06-16T12:01:03.754Z,56.92
2018-06-16T12:03:32.843Z,56.76
2018-06-16T12:06:02.143Z,56.82
2018-06-16T12:08:31.352Z,57.31
2018-06-16T12:11:00.534Z,57.19
2018-06-16T12:13:36.132Z,57.64
2018-06-16T12:16:06.118Z,58.27
2018-06-16T12:18:35.162Z,58.07
2018-06-16T12:21:04.493Z,58.28
2018-06-16T12:23:33.439Z,58.46
2018-06-16T12:26:02.177Z,57.90
2018-06-16T12:28:31.275Z,57.88
2018-06-16T12:31:00.301Z,58.20
2018-06-16T12:33:29.478Z,58.11
2018-06-16T12:35:58.289Z,58.22
2018-06-16T12:38:27.120Z,59.09
2018-06-16T12:40:56.198Z,59.15
2018-06-16T12:43:25.119Z,59.26
2018-06-16T12:45:55.031Z,59.09
2018-06-16T12:48:24.202Z,59.35
2018-06-16T12:50:53.017Z,58.99
2018-06-16T12:53:22.099Z,59.43
2018-06-16T12:55:51.717Z,59.25
2018-06-16T12:58:20.918Z,59.36
2018-06-16T13:00:50.024Z,58.84
2018-06-16T13:03:19.103Z,59.28
2018-06-16T13:05:49.259Z,59.34
2018-06-16T13:08:18.652Z,59.13
2018-06-16T13:10:48.444Z,58.91
2018-06-16T13:13:17.652Z,59.75
2018-06-16T13:15:46.722Z,59.76
2018-06-16T13:18:15.557Z,59.39
2018-06-16T13:20:44.447Z,59.07
2018-06-16T13:23:13.520Z,59.05
2018-06-16T13:25:42.717Z,58.70
2018-06-16T13:28:13.887Z,59.54
2018-06-16T13:30:43.710Z,59.11
2018-06-16T13:33:13.033Z,58.22
2018-06-16T13:35:42.159Z,58.05
2018-06-16T13:38:11.285Z,55.30
2018-06-16T13:40:40.349Z,54.34
2018-06-16T13:43:09.585Z,54.84
2018-06-16T13:45:38.545Z,54.61
2018-06-16T13:48:08.487Z,54.20
2018-06-16T13:50:37.631Z,53.96
2018-06-16T13:53:06.807Z,54.51
2018-06-16T13:55:35.990Z,54.83
2018-06-16T13:58:05.308Z,54.97
2018-06-16T14:00:34.598Z,54.46
2018-06-16T14:03:04.518Z,53.37
2018-06-16T14:05:33.804Z,51.94
2018-06-16T14:08:03.001Z,51.90
2018-06-16T14:10:32.167Z,51.36
2018-06-16T14:13:01.436Z,51.06
2018-06-16T14:15:41.106Z,51.23
2018-06-16T14:18:11.615Z,51.05
2018-06-16T14:20:40.850Z,51.00
2018-06-16T14:23:13.378Z,50.80
2018-06-16T14:25:42.606Z,48.75
2018-06-16T14:28:11.748Z,49.12
2018-06-16T14:30:40.825Z,48.91
2018-06-16T14:33:14.072Z,49.27
2018-06-16T14:35:43.344Z,49.62
2018-06-16T14:38:12.599Z,49.10
2018-06-16T14:40:41.788Z,49.39
2018-06-16T14:43:11.066Z,49.34
2018-06-16T14:45:40.341Z,48.52
2018-06-16T14:48:09.475Z,48.55
2018-06-16T14:50:38.792Z,48.82
2018-06-16T14:53:08.059Z,48.89
2018-06-16T14:55:37.283Z,47.52
2018-06-16T14:58:06.772Z,47.50
2018-06-16T15:00:36.053Z,48.38
2018-06-16T15:03:05.261Z,45.98
2018-06-16T15:05:34.608Z,45.16
2018-06-16T15:08:04.073Z,45.51
2018-06-16T15:10:33.259Z,46.18
2018-06-16T15:13:02.557Z,45.50
2018-06-16T15:15:31.776Z,45.25
2018-06-16T15:18:00.897Z,46.26
2018-06-16T15:20:30.011Z,46.06
2018-06-16T15:22:59.088Z,45.13
2018-06-16T15:25:28.120Z,45.90
2018-06-16T15:27:57.494Z,45.76
2018-06-16T15:30:26.684Z,45.08
2018-06-16T15:32:56.768Z,44.57
2018-06-16T15:35:25.853Z,44.42
2018-06-16T15:37:54.960Z,44.73
2018-06-16T15:40:23.655Z,43.89
2018-06-16T15:42:52.598Z,42.02
2018-06-16T15:45:21.851Z,43.72
2018-06-16T15:47:51.349Z,44.73
2018-06-16T15:50:20.437Z,44.81
2018-06-16T15:52:50.166Z,44.80
2018-06-16T15:55:19.251Z,44.44
2018-06-16T15:57:48.769Z,44.17
2018-06-16T16:00:17.992Z,44.30
2018-06-16T16:02:47.129Z,44.38
2018-06-16T16:05:17.293Z,43.50
2018-06-16T16:07:46.391Z,43.42
2018-06-16T16:10:16.099Z,44.24
2018-06-16T16:12:45.392Z,44.56
2018-06-16T16:15:14.545Z,43.75
2018-06-16T16:17:43.880Z,44.60
2018-06-16T16:20:13.048Z,44.10
2018-06-16T16:22:42.313Z,44.11
2018-06-16T16:25:11.402Z,44.60
2018-06-16T16:27:40.552Z,44.33
2018-06-16T16:30:09.735Z,44.46
2018-06-16T16:32:38.960Z,43.32
2018-06-16T16:35:08.220Z,43.30
2018-06-16T16:37:38.272Z,44.82
2018-06-16T16:40:07.407Z,44.41
2018-06-16T16:42:36.504Z,44.81
2018-06-16T16:45:06.372Z,44.97
2018-06-16T16:47:35.514Z,44.27
2018-06-16T16:50:06.416Z,44.62
2018-06-16T16:52:35.607Z,44.90
2018-06-16T16:55:04.880Z,45.74
2018-06-16T16:57:34.026Z,46.00
2018-06-16T17:00:03.155Z,46.91
2018-06-16T17:02:32.456Z,48.11
2018-06-16T17:05:01.876Z,50.07
2018-06-16T17:07:30.882Z,49.91
2018-06-16T17:09:59.933Z,50.41
2018-06-16T17:12:28.975Z,50.37
2018-06-16T17:14:58.067Z,51.00
2018-06-16T17:17:27.136Z,51.59
2018-06-16T17:19:56.199Z,52.24
2018-06-16T17:22:25.273Z,52.06
2018-06-16T17:24:55.168Z,53.17
2018-06-16T17:27:26.915Z,53.56
2018-06-16T17:29:55.983Z,53.67
2018-06-16T17:32:25.071Z,54.06
2018-06-16T17:34:54.187Z,54.29
2018-06-16T17:37:23.172Z,54.42
2018-06-16T17:39:52.236Z,53.97
2018-06-16T17:42:21.305Z,53.92
2018-06-16T17:44:50.313Z,54.70
2018-06-16T17:47:19.340Z,55.19
2018-06-16T17:49:48.413Z,54.54
2018-06-16T17:52:17.371Z,55.33
2018-06-16T17:54:46.519Z,55.08
2018-06-16T17:57:16.405Z,55.08
2018-06-16T17:59:46.518Z,55.02
2018-06-16T18:02:15.478Z,55.67
2018-06-16T18:04:45.431Z,56.19
2018-06-16T18:07:14.412Z,56.18
2018-06-16T18:09:43.178Z,56.83
2018-06-16T18:12:11.977Z,57.09
2018-06-16T18:14:40.696Z,56.81
2018-06-16T18:17:09.757Z,57.00
2018-06-16T18:19:38.675Z,57.71
2018-06-16T18:22:08.068Z,58.00
2018-06-16T18:24:37.177Z,57.63
2018-06-16T18:27:06.322Z,58.17
2018-06-16T18:29:35.367Z,58.31
2018-06-16T18:32:04.489Z,58.76
2018-06-16T18:34:33.499Z,58.56
2018-06-16T18:37:02.481Z,58.85
2018-06-16T18:39:31.567Z,59.30
2018-06-16T18:42:04.432Z,59.58
2018-06-16T18:44:34.750Z,59.82
2018-06-16T18:47:04.065Z,59.55
2018-06-16T18:49:32.991Z,60.25
2018-06-16T18:52:03.136Z,59.81
2018-06-16T18:54:32.225Z,60.03
2018-06-16T18:57:01.206Z,59.99
2018-06-16T18:59:30.359Z,60.31
2018-06-16T19:01:59.346Z,60.11
2018-06-16T19:04:28.591Z,59.25
2018-06-16T19:06:57.690Z,59.94
2018-06-16T19:09:36.831Z,60.61
2018-06-16T19:12:05.837Z,59.93
2018-06-16T19:14:34.854Z,60.13
2018-06-16T19:17:03.888Z,59.99
2018-06-16T19:19:32.720Z,59.82
2018-06-16T19:22:01.771Z,59.71
2018-06-16T19:24:30.823Z,59.93
2018-06-16T19:26:59.860Z,60.28
2018-06-16T19:29:29.138Z,60.63
2018-06-16T19:31:58.325Z,61.22
2018-06-16T19:34:27.445Z,61.61
2018-06-16T19:36:56.535Z,60.94
2018-06-16T19:39:25.565Z,60.97
2018-06-16T19:41:54.576Z,60.97
2018-06-16T19:44:23.549Z,60.78
2018-06-16T19:46:52.626Z,61.18
2018-06-16T19:49:21.513Z,60.73
2018-06-16T19:51:50.277Z,60.32
2018-06-16T19:54:19.092Z,59.51
2018-06-16T19:56:47.920Z,60.01
2018-06-16T19:59:16.894Z,60.31
2018-06-16T20:01:45.935Z,60.46
2018-06-16T20:04:14.925Z,60.76
2018-06-16T20:06:43.819Z,61.25
2018-06-16T20:09:12.489Z,60.96
2018-06-16T20:11:41.461Z,60.75
2018-06-16T20:14:10.506Z,60.76
2018-06-16T20:16:39.499Z,60.20
2018-06-16T20:19:08.424Z,60.07
2018-06-16T20:21:37.246Z,59.92
2018-06-16T20:24:06.303Z,59.51
2018-06-16T20:26:35.307Z,60.03
2018-06-16T20:29:04.491Z,60.11
2018-06-16T20:31:33.454Z,59.94
2018-06-16T20:34:02.465Z,59.25
2018-06-16T20:36:31.481Z,59.89
2018-06-16T20:39:00.423Z,59.40
2018-06-16T20:41:29.460Z,59.54
2018-06-16T20:43:58.451Z,59.42
2018-06-16T20:46:27.375Z,59.43
2018-06-16T20:48:56.361Z,59.03
2018-06-16T20:51:25.438Z,58.96
2018-06-16T20:53:54.359Z,59.64
2018-06-16T20:56:23.238Z,59.56
2018-06-16T20:58:52.320Z,59.30
2018-06-16T21:01:21.376Z,59.99
2018-06-16T21:03:50.361Z,60.67
2018-06-16T21:06:19.177Z,60.50
2018-06-16T21:08:48.234Z,60.62
2018-06-16T21:11:17.255Z,59.89
2018-06-16T21:13:46.220Z,59.87
2018-06-16T21:16:15.189Z,61.07
2018-06-16T21:18:47.033Z,61.34
2018-06-16T21:21:16.013Z,61.65
2018-06-16T21:23:44.998Z,62.47
2018-06-16T21:26:13.978Z,62.42
2018-06-16T21:28:43.019Z,62.22
2018-06-16T21:31:12.732Z,61.96
2018-06-16T21:33:41.669Z,61.83
2018-06-16T21:36:10.671Z,61.00
2018-06-16T21:38:39.693Z,60.81
2018-06-16T21:41:09.044Z,60.90
2018-06-16T21:43:38.096Z,61.25
2018-06-16T21:46:07.096Z,61.32
2018-06-16T21:48:36.994Z,61.46
2018-06-16T21:51:06.073Z,61.91
2018-06-16T21:53:35.085Z,62.18
2018-06-16T21:56:04.181Z,62.39
2018-06-16T21:58:33.131Z,61.70
2018-06-16T22:01:03.331Z,61.94
2018-06-16T22:03:32.425Z,62.45
2018-06-16T22:06:01.342Z,62.54
2018-06-16T22:08:33.322Z,61.58
2018-06-16T22:11:03.517Z,61.49
2018-06-16T22:13:32.704Z,61.04
2018-06-16T22:16:01.624Z,60.25
2018-06-16T22:18:30.597Z,60.81
2018-06-16T22:20:59.526Z,59.75
2018-06-16T22:23:28.637Z,59.52
2018-06-16T22:25:57.630Z,60.62
2018-06-16T22:28:26.604Z,60.45
2018-06-16T22:30:55.549Z,60.23
2018-06-16T22:33:24.430Z,60.38
2018-06-16T22:35:53.405Z,60.32
2018-06-16T22:38:22.358Z,60.32
2018-06-16T22:40:51.286Z,60.23
2018-06-16T22:43:20.203Z,61.00
2018-06-16T22:45:49.160Z,61.36
2018-06-16T22:48:18.164Z,61.69
2018-06-16T22:50:47.179Z,61.41
2018-06-16T22:53:16.153Z,61.57
2018-06-16T22:55:45.170Z,61.56
2018-06-16T22:58:14.147Z,61.77
2018-06-16T23:00:43.099Z,61.39
2018-06-16T23:06:02.049Z,61.27
2018-06-16T23:08:31.004Z,60.91
2018-06-16T23:10:59.969Z,60.49
2018-06-16T23:13:28.630Z,60.25
2018-06-16T23:15:57.285Z,60.68
2018-06-16T23:18:26.076Z,60.90
2018-06-16T23:20:55.112Z,60.64
2018-06-16T23:23:24.013Z,60.41
2018-06-16T23:25:52.944Z,60.41
2018-06-16T23:28:22.241Z,60.78
2018-06-16T23:30:51.180Z,61.28
2018-06-16T23:33:20.121Z,61.62
2018-06-16T23:35:49.248Z,62.56
2018-06-16T23:38:18.295Z,62.81
2018-06-16T23:43:39.099Z,62.86
2018-06-16T23:46:08.002Z,63.26
2018-06-16T23:48:36.985Z,62.74
2018-06-16T23:51:06.413Z,62.15
2018-06-16T23:53:36.011Z,62.17
2018-06-16T23:56:05.322Z,61.82
2018-06-16T23:58:34.288Z,62.67
